Aviation Digital Data Service (ADDS)

Output produced by METARs form (0930 UTC 17 September 2014)
found at http://aviationweather.gov/adds/metars/
 
KGSP 170540Z 1706/1806 02003KT P6SM FEW090 
     FM170800 01004KT 5SM BR BKN050 
     FM171100 02005KT 3SM BR SCT008 BKN015 
     FM171400 02006KT P6SM BKN021 
     FM172000 04006KT P6SM BKN040